createdAt,value
2019-05-05T00:00:24.665Z,8.00
2019-05-05T00:01:25.069Z,12.00
2019-05-05T00:02:24.859Z,12.00
2019-05-05T00:03:24.965Z,12.00
2019-05-05T00:04:24.373Z,16.00
2019-05-05T00:05:24.704Z,20.00
2019-05-05T00:06:25.002Z,24.00
2019-05-05T00:07:25.402Z,28.00
2019-05-05T00:08:24.595Z,36.00
2019-05-05T00:09:25.231Z,44.00
2019-05-05T00:10:25.278Z,52.00
2019-05-05T00:11:24.535Z,60.00
2019-05-05T00:12:25.150Z,72.00
2019-05-05T00:13:25.198Z,80.00
2019-05-05T00:14:24.675Z,96.00
2019-05-05T00:15:25.074Z,112.00
2019-05-05T00:16:24.586Z,132.00
2019-05-05T00:17:24.917Z,152.00
2019-05-05T00:19:32.509Z,196.00
2019-05-05T00:20:48.903Z,232.00
2019-05-05T00:21:48.896Z,260.00
2019-05-05T00:22:48.885Z,292.00
2019-05-05T00:23:48.872Z,328.00
2019-05-05T00:24:49.021Z,368.00
2019-05-05T00:25:48.858Z,404.00
2019-05-05T00:26:48.847Z,452.00
2019-05-05T00:27:48.830Z,496.00
2019-05-05T00:28:48.818Z,544.00
2019-05-05T00:29:48.809Z,600.00
2019-05-05T00:30:48.894Z,660.00
2019-05-05T00:31:48.785Z,720.00
2019-05-05T00:32:48.782Z,784.00
2019-05-05T00:33:48.772Z,856.00
2019-05-05T00:34:48.762Z,928.00
2019-05-05T00:35:48.749Z,1012.00
2019-05-05T00:36:48.783Z,1100.00
2019-05-05T00:37:48.733Z,1252.00
2019-05-05T00:38:48.714Z,1460.00
2019-05-05T00:39:48.706Z,1640.00
2019-05-05T00:40:48.692Z,1796.00
2019-05-05T00:41:48.686Z,1940.00
2019-05-05T00:42:48.824Z,2084.00
2019-05-05T00:43:48.661Z,2268.00
2019-05-05T00:44:48.653Z,2472.00
2019-05-05T00:45:48.644Z,2676.00
2019-05-05T00:46:48.631Z,2840.00
2019-05-05T00:47:48.621Z,3024.00
2019-05-05T00:48:48.710Z,3284.00
2019-05-05T00:49:49.385Z,3524.00
2019-05-05T00:50:51.694Z,3784.00
2019-05-05T00:51:48.580Z,4072.00
2019-05-05T00:52:48.568Z,4344.00
2019-05-05T00:53:48.560Z,4624.00
2019-05-05T00:54:48.648Z,4844.00
2019-05-05T00:55:48.537Z,5144.00
2019-05-05T00:56:48.527Z,5456.00
2019-05-05T00:57:48.516Z,5720.00
2019-05-05T00:58:48.509Z,6004.00
2019-05-05T00:59:48.493Z,6288.00
2019-05-05T01:00:48.636Z,6476.00
2019-05-05T01:01:48.470Z,6768.00
2019-05-05T01:02:48.461Z,7144.00
2019-05-05T01:03:48.450Z,7500.00
2019-05-05T01:04:48.437Z,7860.00
2019-05-05T01:05:48.429Z,8204.00
2019-05-05T01:06:48.516Z,8712.00
2019-05-05T01:07:48.409Z,9284.00
2019-05-05T01:08:48.394Z,10396.00
2019-05-05T01:09:48.389Z,13892.00
2019-05-05T01:10:48.374Z,19584.00
2019-05-05T01:11:48.365Z,22944.00
2019-05-05T01:12:48.403Z,20800.00
2019-05-05T01:13:48.342Z,18976.00
2019-05-05T01:14:48.336Z,22496.00
2019-05-05T01:15:48.326Z,28160.00
2019-05-05T01:16:48.313Z,32672.00
2019-05-05T01:17:48.301Z,34624.00
2019-05-05T01:18:48.441Z,34976.00
2019-05-05T01:20:00.367Z,32128.00
2019-05-05T01:21:14.958Z,34976.00
2019-05-05T01:22:14.365Z,41696.00
2019-05-05T01:23:15.050Z,43552.00
2019-05-05T01:24:14.385Z,42112.00
2019-05-05T01:25:14.829Z,39744.00
2019-05-05T01:26:14.357Z,38080.00
2019-05-05T01:27:14.757Z,38528.00
2019-05-05T01:28:14.316Z,39040.00
2019-05-05T01:29:14.668Z,39264.00
2019-05-05T01:30:15.107Z,40544.00
2019-05-05T01:31:14.640Z,42496.00
2019-05-05T01:32:15.099Z,44352.00
2019-05-05T01:33:14.536Z,43744.00
2019-05-05T01:34:14.955Z,43680.00
2019-05-05T01:35:14.419Z,45504.00
2019-05-05T01:36:14.891Z,45216.00
2019-05-05T01:37:15.057Z,42880.00
2019-05-05T01:38:14.207Z,44288.00
2019-05-05T01:39:14.665Z,50176.00
2019-05-05T01:40:14.188Z,55008.00
2019-05-05T01:41:14.728Z,54304.00
2019-05-05T01:42:14.296Z,55360.00
2019-05-05T01:43:14.632Z,60448.00
2019-05-05T01:44:12.846Z,64192.00
2019-05-05T01:45:14.828Z,62656.00
2019-05-05T01:46:14.292Z,59360.00
2019-05-05T01:47:14.619Z,60000.00
2019-05-05T01:48:14.248Z,65440.00
2019-05-05T01:49:14.632Z,67872.00
2019-05-05T01:50:18.224Z,67328.00
2019-05-05T01:51:37.580Z,63104.00
2019-05-05T01:52:37.571Z,57920.00
2019-05-05T01:53:37.963Z,54720.00
2019-05-05T01:54:37.547Z,59328.00
2019-05-05T01:55:37.539Z,66944.00
2019-05-05T01:56:37.532Z,66816.00
2019-05-05T01:57:37.519Z,60768.00
2019-05-05T01:58:37.511Z,56672.00
2019-05-05T01:59:37.549Z,59232.00
2019-05-05T02:00:37.495Z,66144.00
2019-05-05T02:01:37.479Z,67808.00
2019-05-05T02:02:37.478Z,61440.00
2019-05-05T02:03:37.462Z,53376.00
2019-05-05T02:04:37.450Z,49504.00
2019-05-05T02:05:37.492Z,47872.00
2019-05-05T02:06:37.427Z,49888.00
2019-05-05T02:07:37.426Z,53280.00
2019-05-05T02:08:37.415Z,52704.00
2019-05-05T02:09:37.402Z,51840.00
2019-05-05T02:10:37.390Z,53632.00
2019-05-05T02:11:37.532Z,52384.00
2019-05-05T02:12:37.371Z,51744.00
2019-05-05T02:13:37.359Z,53248.00
2019-05-05T02:14:37.356Z,51136.00
2019-05-05T02:15:37.345Z,50816.00
2019-05-05T02:16:37.331Z,54624.00
2019-05-05T02:17:37.371Z,52160.00
2019-05-05T02:18:37.319Z,49664.00
2019-05-05T02:19:37.299Z,49408.00
2019-05-05T02:20:37.292Z,47296.00
2019-05-05T02:21:37.281Z,46304.00
2019-05-05T02:22:37.271Z,48768.00
2019-05-05T02:23:37.312Z,51200.00
2019-05-05T02:24:37.254Z,50240.00
2019-05-05T02:25:37.243Z,48288.00
2019-05-05T02:26:37.226Z,47488.00
2019-05-05T02:27:37.222Z,47008.00
2019-05-05T02:28:37.208Z,45728.00
2019-05-05T02:29:37.349Z,46336.00
2019-05-05T02:30:37.192Z,46080.00
2019-05-05T02:31:37.183Z,45664.00
2019-05-05T02:32:37.168Z,45120.00
2019-05-05T02:33:37.158Z,42592.00
2019-05-05T02:34:37.154Z,42208.00
2019-05-05T02:35:37.190Z,44480.00
2019-05-05T02:36:37.132Z,45760.00
2019-05-05T02:37:37.126Z,46272.00
2019-05-05T02:38:37.113Z,47424.00
2019-05-05T02:39:39.328Z,47520.00
2019-05-05T02:41:04.780Z,44704.00
2019-05-05T02:42:01.938Z,43904.00
2019-05-05T02:43:01.929Z,43488.00
2019-05-05T02:44:04.872Z,44512.00
2019-05-05T02:45:05.021Z,45632.00
2019-05-05T02:46:02.059Z,44384.00
2019-05-05T02:47:04.588Z,42272.00
2019-05-05T02:48:05.117Z,44768.00
2019-05-05T02:49:05.014Z,47328.00
2019-05-05T02:50:04.985Z,46272.00
2019-05-05T02:51:02.999Z,45664.00
2019-05-05T02:52:04.707Z,44928.00
2019-05-05T02:53:03.916Z,44160.00
2019-05-05T02:54:01.828Z,45920.00
2019-05-05T02:55:03.966Z,47840.00
2019-05-05T02:56:04.019Z,44736.00
2019-05-05T02:57:01.797Z,39424.00
2019-05-05T02:58:03.739Z,41664.00
2019-05-05T02:59:01.787Z,41472.00
2019-05-05T03:00:01.769Z,44032.00
2019-05-05T03:01:01.755Z,46048.00
2019-05-05T03:02:01.751Z,47040.00
2019-05-05T03:03:01.742Z,45056.00
2019-05-05T03:04:03.785Z,44608.00
2019-05-05T03:05:01.719Z,45184.00
2019-05-05T03:06:01.714Z,46016.00
2019-05-05T03:07:01.705Z,44832.00
2019-05-05T03:08:01.698Z,44480.00
2019-05-05T03:09:01.681Z,45024.00
2019-05-05T03:10:03.601Z,45568.00
2019-05-05T03:11:03.794Z,44096.00
2019-05-05T03:12:01.651Z,43456.00
2019-05-05T03:13:01.648Z,45888.00
2019-05-05T03:14:01.633Z,46656.00
2019-05-05T03:15:04.002Z,43520.00
2019-05-05T03:16:03.644Z,43616.00
2019-05-05T03:17:01.604Z,44672.00
2019-05-05T03:18:01.598Z,43040.00
2019-05-05T03:19:03.453Z,42912.00
2019-05-05T03:20:01.580Z,41472.00
2019-05-05T03:21:06.715Z,41248.00
2019-05-05T03:22:03.590Z,45472.00
2019-05-05T03:23:01.549Z,45664.00
2019-05-05T03:24:03.598Z,43456.00
2019-05-05T03:25:01.528Z,43200.00
2019-05-05T03:26:01.517Z,43584.00
2019-05-05T03:27:03.686Z,43008.00
2019-05-05T03:28:01.604Z,42816.00
2019-05-05T03:29:01.490Z,44448.00
2019-05-05T03:30:04.710Z,45344.00
2019-05-05T03:31:04.774Z,46176.00
2019-05-05T03:32:01.465Z,45632.00
2019-05-05T03:33:05.098Z,43264.00
2019-05-05T03:34:01.507Z,42784.00
2019-05-05T03:35:01.449Z,42272.00
2019-05-05T03:36:03.431Z,42496.00
2019-05-05T03:37:01.419Z,41472.00
2019-05-05T03:38:01.403Z,39232.00
2019-05-05T03:39:01.402Z,41024.00
2019-05-05T03:40:01.595Z,41088.00
2019-05-05T03:41:03.506Z,40480.00
2019-05-05T03:42:03.526Z,40352.00
2019-05-05T03:43:01.360Z,37600.00
2019-05-05T03:44:01.350Z,36768.00
2019-05-05T03:45:01.339Z,37760.00
2019-05-05T03:46:01.379Z,38144.00
2019-05-05T03:47:03.458Z,40288.00
2019-05-05T03:48:01.312Z,38464.00
2019-05-05T03:49:01.301Z,36384.00
2019-05-05T03:50:01.293Z,37568.00
2019-05-05T03:51:01.289Z,37504.00
2019-05-05T03:52:01.379Z,35616.00
2019-05-05T03:53:01.270Z,35296.00
2019-05-05T03:54:01.259Z,37152.00
2019-05-05T03:55:03.635Z,35680.00
2019-05-05T03:56:01.240Z,34848.00
2019-05-05T03:57:01.229Z,35424.00
2019-05-05T03:58:01.369Z,35296.00
2019-05-05T03:59:01.208Z,34144.00
2019-05-05T04:00:01.195Z,34048.00
2019-05-05T04:01:01.195Z,35104.00
2019-05-05T04:02:01.180Z,34400.00
2019-05-05T04:03:01.172Z,33248.00
2019-05-05T04:04:03.351Z,31520.00
2019-05-05T04:05:01.148Z,30976.00
2019-05-05T04:06:01.143Z,32224.00
2019-05-05T04:07:01.133Z,34432.00
2019-05-05T04:08:01.123Z,35040.00
2019-05-05T04:09:01.113Z,34656.00
2019-05-05T04:10:03.585Z,34144.00
2019-05-05T04:11:01.097Z,33568.00
2019-05-05T04:12:01.084Z,33536.00
2019-05-05T04:13:01.077Z,33408.00
2019-05-05T04:14:01.067Z,31104.00
2019-05-05T04:15:01.060Z,25152.00
2019-05-05T04:16:01.296Z,17352.00
2019-05-05T04:17:01.039Z,11544.00
2019-05-05T04:18:01.026Z,9984.00
2019-05-05T04:19:01.016Z,9676.00
2019-05-05T04:20:01.006Z,9492.00
2019-05-05T04:21:00.997Z,9352.00
2019-05-05T04:22:01.039Z,9220.00
2019-05-05T04:23:00.980Z,9088.00
2019-05-05T04:24:00.971Z,8972.00
2019-05-05T04:25:00.959Z,8856.00
2019-05-05T04:26:00.952Z,8780.00
2019-05-05T04:27:00.940Z,8664.00
2019-05-05T04:28:01.031Z,8580.00
2019-05-05T04:29:03.254Z,8500.00
2019-05-05T04:30:00.918Z,8400.00
2019-05-05T04:31:00.899Z,8320.00
2019-05-05T04:32:00.889Z,8228.00
2019-05-05T04:33:00.886Z,8144.00
2019-05-05T04:34:01.020Z,8084.00
2019-05-05T04:35:00.861Z,8004.00
2019-05-05T04:36:00.848Z,7952.00
2019-05-05T04:37:00.840Z,7864.00
2019-05-05T04:38:00.831Z,7784.00
2019-05-05T04:39:00.817Z,7728.00
2019-05-05T04:40:00.910Z,7680.00
2019-05-05T04:41:00.798Z,7608.00
2019-05-05T04:42:00.788Z,7552.00
2019-05-05T04:43:00.777Z,7504.00
2019-05-05T04:44:00.768Z,7440.00
2019-05-05T04:45:00.762Z,7376.00
2019-05-05T04:46:00.801Z,7328.00
2019-05-05T04:47:00.740Z,7264.00
2019-05-05T04:48:00.729Z,7204.00
2019-05-05T04:49:00.720Z,7128.00
2019-05-05T04:50:00.706Z,7092.00
2019-05-05T04:51:00.698Z,7036.00
2019-05-05T04:52:00.937Z,6996.00
2019-05-05T04:53:00.681Z,6940.00
2019-05-05T04:54:00.669Z,6872.00
2019-05-05T04:55:00.663Z,6836.00
2019-05-05T04:56:00.646Z,6768.00
2019-05-05T04:57:00.636Z,6736.00
2019-05-05T04:58:00.680Z,6672.00
2019-05-05T04:59:00.618Z,6636.00
2019-05-05T05:00:00.612Z,6580.00
2019-05-05T05:01:00.597Z,6540.00
2019-05-05T05:02:00.590Z,6496.00
2019-05-05T05:03:00.577Z,6456.00
2019-05-05T05:04:00.672Z,6416.00
2019-05-05T05:05:00.562Z,6372.00
2019-05-05T05:06:00.547Z,6332.00
2019-05-05T05:07:00.552Z,6276.00
2019-05-05T05:08:00.530Z,6236.00
2019-05-05T05:09:00.526Z,6192.00
2019-05-05T05:10:00.664Z,6156.00
2019-05-05T05:11:00.502Z,6100.00
2019-05-05T05:12:00.487Z,6052.00
2019-05-05T05:13:00.478Z,6000.00
2019-05-05T05:14:00.471Z,5944.00
2019-05-05T05:15:00.463Z,5896.00
2019-05-05T05:16:00.507Z,5844.00
2019-05-05T05:17:00.443Z,5804.00
2019-05-05T05:18:00.433Z,5756.00
2019-05-05T05:19:00.428Z,5712.00
2019-05-05T05:20:00.412Z,5668.00
2019-05-05T05:21:00.408Z,5628.00
2019-05-05T05:22:02.128Z,5584.00
2019-05-05T05:23:00.387Z,5540.00
2019-05-05T05:24:00.377Z,5488.00
2019-05-05T05:25:00.362Z,5444.00
2019-05-05T05:26:00.355Z,5404.00
2019-05-05T05:27:00.344Z,5368.00
2019-05-05T05:28:00.482Z,5324.00
2019-05-05T05:29:00.327Z,5272.00
2019-05-05T05:30:00.312Z,5216.00
2019-05-05T05:31:00.302Z,5164.00
2019-05-05T05:32:00.293Z,5104.00
2019-05-05T05:33:00.283Z,5044.00
2019-05-05T05:34:00.325Z,4988.00
2019-05-05T05:35:00.263Z,4920.00
2019-05-05T05:36:00.249Z,4808.00
2019-05-05T05:37:00.247Z,4552.00
2019-05-05T05:38:00.235Z,4236.00
2019-05-05T05:39:00.221Z,4092.00
2019-05-05T05:40:00.261Z,4052.00
2019-05-05T05:41:00.200Z,4032.00
2019-05-05T05:42:00.194Z,4008.00
2019-05-05T05:43:00.181Z,3992.00
2019-05-05T05:44:00.168Z,3972.00
2019-05-05T05:45:00.162Z,3952.00
2019-05-05T05:46:00.301Z,3928.00
2019-05-05T05:47:00.140Z,3904.00
2019-05-05T05:48:00.128Z,3888.00
2019-05-05T05:49:00.119Z,3860.00
2019-05-05T05:50:00.111Z,3836.00
2019-05-05T05:51:00.104Z,3808.00
2019-05-05T05:53:00.128Z,3760.00
2019-05-05T05:54:00.070Z,3740.00
2019-05-05T05:55:00.065Z,3724.00
2019-05-05T05:56:00.052Z,3712.00
2019-05-05T05:57:00.039Z,3700.00
2019-05-05T05:58:00.030Z,3688.00
2019-05-05T05:59:00.067Z,3680.00
2019-05-05T06:00:00.013Z,3672.00
2019-05-05T06:01:00.000Z,3664.00
2019-05-05T06:02:09.897Z,3656.00
2019-05-05T06:03:24.802Z,3644.00
2019-05-05T06:04:24.938Z,3640.00
2019-05-05T06:05:24.772Z,3636.00
2019-05-05T06:06:24.775Z,3632.00
2019-05-05T06:07:24.761Z,3628.00
2019-05-05T06:08:24.742Z,3620.00
2019-05-05T06:09:24.730Z,3612.00
2019-05-05T06:10:27.305Z,3604.00
2019-05-05T06:11:24.709Z,3596.00
2019-05-05T06:12:24.713Z,3588.00
2019-05-05T06:13:24.694Z,3576.00
2019-05-05T06:14:24.775Z,3572.00
2019-05-05T06:15:24.674Z,3564.00
2019-05-05T06:16:24.758Z,3560.00
2019-05-05T06:17:24.650Z,3556.00
2019-05-05T06:18:24.636Z,3552.00
2019-05-05T06:19:24.733Z,3544.00
2019-05-05T06:20:24.622Z,3544.00
2019-05-05T06:21:24.607Z,3532.00
2019-05-05T06:22:29.221Z,3532.00
2019-05-05T06:23:49.399Z,3528.00
2019-05-05T06:24:49.389Z,3520.00
2019-05-05T06:25:49.378Z,3512.00
2019-05-05T06:26:49.367Z,3508.00
2019-05-05T06:27:49.409Z,3496.00
2019-05-05T06:28:49.348Z,3492.00
2019-05-05T06:29:49.343Z,3496.00
2019-05-05T06:30:49.325Z,3496.00
2019-05-05T06:31:49.321Z,3488.00
2019-05-05T06:32:49.306Z,3476.00
2019-05-05T06:33:49.347Z,3472.00
2019-05-05T06:34:49.291Z,3468.00
2019-05-05T06:35:49.281Z,3464.00
2019-05-05T06:36:49.276Z,3460.00
2019-05-05T06:37:49.255Z,3456.00
2019-05-05T06:38:49.246Z,3452.00
2019-05-05T06:39:49.385Z,3448.00
2019-05-05T06:40:49.226Z,3444.00
2019-05-05T06:41:49.220Z,3436.00
2019-05-05T06:42:49.206Z,3432.00
2019-05-05T06:43:49.199Z,3424.00
2019-05-05T06:44:49.184Z,3416.00
2019-05-05T06:45:49.232Z,3412.00
2019-05-05T06:46:49.172Z,3408.00
2019-05-05T06:47:49.162Z,3400.00
2019-05-05T06:48:49.145Z,3392.00
2019-05-05T06:49:49.140Z,3384.00
2019-05-05T06:50:49.125Z,3380.00
2019-05-05T06:51:49.166Z,3376.00
2019-05-05T06:52:49.102Z,3372.00
2019-05-05T06:53:49.094Z,3368.00
2019-05-05T06:54:49.081Z,3364.00
2019-05-05T06:55:51.768Z,3364.00
2019-05-05T06:56:49.061Z,3360.00
2019-05-05T06:57:49.205Z,3356.00
2019-05-05T06:58:49.043Z,3352.00
2019-05-05T06:59:49.030Z,3348.00
2019-05-05T07:00:49.023Z,3340.00
2019-05-05T07:01:49.013Z,3336.00
2019-05-05T07:02:49.002Z,3332.00
2019-05-05T07:03:49.039Z,3332.00
2019-05-05T07:04:48.984Z,3328.00
2019-05-05T07:05:48.971Z,3328.00
2019-05-05T07:06:54.204Z,3316.00
2019-05-05T07:08:13.973Z,3312.00
2019-05-05T07:09:14.001Z,3304.00
2019-05-05T07:10:14.131Z,3300.00
2019-05-05T07:11:14.538Z,3296.00
2019-05-05T07:12:13.982Z,3296.00
2019-05-05T07:13:14.088Z,3296.00
2019-05-05T07:14:14.259Z,3292.00
2019-05-05T07:16:15.026Z,3288.00
2019-05-05T07:17:14.138Z,3288.00
2019-05-05T07:18:14.202Z,3288.00
2019-05-05T07:19:14.718Z,3280.00
2019-05-05T07:20:13.750Z,3280.00
2019-05-05T07:21:14.276Z,3268.00
2019-05-05T07:22:14.425Z,3268.00
2019-05-05T07:23:14.548Z,3264.00
2019-05-05T07:24:14.523Z,3264.00
2019-05-05T07:25:13.789Z,3264.00
2019-05-05T07:26:14.390Z,3260.00
2019-05-05T07:27:13.950Z,3260.00
2019-05-05T07:28:14.696Z,3256.00
2019-05-05T07:29:16.318Z,3256.00
2019-05-05T07:30:13.764Z,3260.00
2019-05-05T07:31:14.382Z,3264.00
2019-05-05T07:32:14.168Z,3264.00
2019-05-05T07:33:14.856Z,3264.00
2019-05-05T07:34:13.782Z,3268.00
2019-05-05T07:35:14.565Z,3264.00
2019-05-05T07:36:14.617Z,3264.00
2019-05-05T07:37:14.349Z,3260.00
2019-05-05T07:38:13.944Z,3260.00
2019-05-05T07:39:14.371Z,3256.00
2019-05-05T07:40:13.637Z,3256.00
2019-05-05T07:41:14.126Z,3256.00
2019-05-05T07:42:13.778Z,3260.00
2019-05-05T07:43:14.650Z,3252.00
2019-05-05T07:44:25.771Z,3252.00
2019-05-05T07:45:38.275Z,3252.00
2019-05-05T07:46:38.266Z,3252.00
2019-05-05T07:47:38.253Z,3248.00
2019-05-05T07:48:38.245Z,3244.00
2019-05-05T07:49:38.238Z,3244.00
2019-05-05T07:50:38.477Z,3240.00
2019-05-05T07:51:38.207Z,3240.00
2019-05-05T07:52:38.198Z,3236.00
2019-05-05T07:53:38.191Z,3228.00
2019-05-05T07:54:38.178Z,3228.00
2019-05-05T07:55:38.169Z,3232.00
2019-05-05T07:56:38.209Z,3228.00
2019-05-05T07:57:38.438Z,3236.00
2019-05-05T07:58:38.135Z,3236.00
2019-05-05T07:59:38.121Z,3240.00
2019-05-05T08:00:38.114Z,3244.00
2019-05-05T08:01:38.107Z,3240.00
2019-05-05T08:02:38.150Z,3244.00
2019-05-05T08:03:38.079Z,3236.00
2019-05-05T08:04:38.067Z,3236.00
2019-05-05T08:05:38.056Z,3232.00
2019-05-05T08:06:38.049Z,3232.00
2019-05-05T08:07:38.037Z,3236.00
2019-05-05T08:08:38.179Z,3236.00
2019-05-05T08:09:38.016Z,3236.00
2019-05-05T08:10:38.000Z,3232.00
2019-05-05T08:11:37.994Z,3228.00
2019-05-05T08:12:37.981Z,3232.00
2019-05-05T08:13:37.968Z,3232.00
2019-05-05T08:14:38.011Z,3236.00
2019-05-05T08:15:37.947Z,3232.00
2019-05-05T08:16:37.936Z,3236.00
2019-05-05T08:17:39.072Z,3232.00
2019-05-05T08:18:37.918Z,3232.00
2019-05-05T08:19:37.906Z,3228.00
2019-05-05T08:20:37.997Z,3228.00
2019-05-05T08:21:37.886Z,3228.00
2019-05-05T08:22:37.876Z,3220.00
2019-05-05T08:23:37.859Z,3224.00
2019-05-05T08:24:37.859Z,3220.00
2019-05-05T08:25:40.326Z,3216.00
2019-05-05T08:26:38.020Z,3212.00
2019-05-05T08:27:37.818Z,3212.00
2019-05-05T08:28:37.809Z,3204.00
2019-05-05T08:29:37.796Z,3200.00
2019-05-05T08:30:37.784Z,3192.00
2019-05-05T08:31:37.771Z,3188.00
2019-05-05T08:32:37.813Z,3188.00
2019-05-05T08:33:37.755Z,3180.00
2019-05-05T08:34:37.738Z,3176.00
2019-05-05T08:35:37.730Z,3172.00
2019-05-05T08:36:39.393Z,3172.00
2019-05-05T08:37:37.707Z,3168.00
2019-05-05T08:38:37.752Z,3164.00
2019-05-05T08:39:37.694Z,3168.00
2019-05-05T08:40:37.677Z,3164.00
2019-05-05T08:41:37.666Z,3164.00
2019-05-05T08:42:37.652Z,3168.00
2019-05-05T08:43:37.646Z,3172.00
2019-05-05T08:44:37.781Z,3176.00
2019-05-05T08:45:37.624Z,3176.00
2019-05-05T08:46:37.611Z,3180.00
2019-05-05T08:47:37.603Z,3180.00
2019-05-05T08:48:37.592Z,3180.00
2019-05-05T08:49:37.579Z,3184.00
2019-05-05T08:50:37.616Z,3180.00
2019-05-05T08:51:37.560Z,3180.00
2019-05-05T08:52:37.545Z,3180.00
2019-05-05T08:53:44.729Z,3172.00
2019-05-05T08:55:04.515Z,3168.00
2019-05-05T08:56:04.081Z,3160.00
2019-05-05T08:57:04.223Z,3156.00
2019-05-05T08:58:04.360Z,3148.00
2019-05-05T08:59:03.627Z,3144.00
2019-05-05T09:00:02.287Z,3140.00
2019-05-05T09:01:04.400Z,3140.00
2019-05-05T09:02:04.349Z,3140.00
2019-05-05T09:03:03.749Z,3136.00
2019-05-05T09:04:04.096Z,3132.00
2019-05-05T09:05:04.140Z,3132.00
2019-05-05T09:06:04.541Z,3132.00
2019-05-05T09:07:04.828Z,3132.00
2019-05-05T09:08:04.427Z,3132.00
2019-05-05T09:09:03.862Z,3132.00
2019-05-05T09:10:03.900Z,3136.00
2019-05-05T09:11:04.514Z,3136.00
2019-05-05T09:12:04.403Z,3136.00
2019-05-05T09:13:03.770Z,3140.00
2019-05-05T09:14:04.088Z,3140.00
2019-05-05T09:15:04.260Z,3132.00
2019-05-05T09:16:03.837Z,3128.00
2019-05-05T09:17:04.267Z,3116.00
2019-05-05T09:18:02.092Z,3108.00
2019-05-05T09:19:04.090Z,3104.00
2019-05-05T09:20:04.362Z,3096.00
2019-05-05T09:21:04.209Z,3092.00
2019-05-05T09:22:02.052Z,3088.00
2019-05-05T09:23:03.638Z,3088.00
2019-05-05T09:24:04.781Z,3084.00
2019-05-05T09:25:04.144Z,3076.00
2019-05-05T09:26:04.328Z,3076.00
2019-05-05T09:27:03.629Z,3072.00
2019-05-05T09:28:03.934Z,3072.00
2019-05-05T09:29:01.978Z,3064.00
2019-05-05T09:30:03.926Z,3060.00
2019-05-05T09:31:04.058Z,3060.00
2019-05-05T09:32:03.902Z,3056.00
2019-05-05T09:33:03.577Z,3052.00
2019-05-05T09:34:04.040Z,3048.00
2019-05-05T09:35:01.917Z,3044.00
2019-05-05T09:36:01.901Z,3044.00
2019-05-05T09:37:03.650Z,3044.00
2019-05-05T09:38:03.875Z,3040.00
2019-05-05T09:39:01.869Z,3036.00
2019-05-05T09:40:01.863Z,3036.00
2019-05-05T09:41:03.805Z,3032.00
2019-05-05T09:42:03.937Z,3032.00
2019-05-05T09:43:03.801Z,3028.00
2019-05-05T09:44:04.180Z,3028.00
2019-05-05T09:45:01.807Z,3024.00
2019-05-05T09:46:03.764Z,3020.00
2019-05-05T09:47:04.061Z,3016.00
2019-05-05T09:48:01.771Z,3012.00
2019-05-05T09:49:01.759Z,3008.00
2019-05-05T09:50:03.801Z,3008.00
2019-05-05T09:51:01.737Z,3004.00
2019-05-05T09:52:01.726Z,3004.00
2019-05-05T09:53:01.720Z,3004.00
2019-05-05T09:54:11.858Z,3000.00
2019-05-05T09:55:26.616Z,3000.00
2019-05-05T09:56:26.507Z,2996.00
2019-05-05T09:57:26.490Z,2996.00
2019-05-05T09:58:26.480Z,2996.00
2019-05-05T09:59:26.480Z,2996.00
2019-05-05T10:00:26.460Z,2992.00
2019-05-05T10:01:26.600Z,2992.00
2019-05-05T10:02:26.468Z,2988.00
2019-05-05T10:03:26.426Z,2984.00
2019-05-05T10:04:26.418Z,2984.00
2019-05-05T10:05:26.406Z,2976.00
2019-05-05T10:06:26.395Z,2976.00
2019-05-05T10:07:26.436Z,2972.00
2019-05-05T10:08:26.378Z,2968.00
2019-05-05T10:09:26.369Z,2968.00
2019-05-05T10:10:26.351Z,2964.00
2019-05-05T10:11:26.344Z,2960.00
2019-05-05T10:12:26.332Z,2960.00
2019-05-05T10:13:26.371Z,2956.00
2019-05-05T10:14:26.313Z,2956.00
2019-05-05T10:15:26.305Z,2960.00
2019-05-05T10:16:26.289Z,2956.00
2019-05-05T10:17:26.287Z,2956.00
2019-05-05T10:18:26.270Z,2956.00
2019-05-05T10:19:26.415Z,2956.00
2019-05-05T10:20:26.255Z,2948.00
2019-05-05T10:21:26.245Z,2948.00
2019-05-05T10:22:26.226Z,2948.00
2019-05-05T10:23:26.227Z,2944.00
2019-05-05T10:24:30.649Z,2944.00
2019-05-05T10:25:26.297Z,2944.00
2019-05-05T10:26:26.184Z,2936.00
2019-05-05T10:27:26.175Z,2936.00
2019-05-05T10:28:26.164Z,2936.00
2019-05-05T10:29:26.161Z,2932.00
2019-05-05T10:30:26.141Z,2928.00
2019-05-05T10:31:26.181Z,2924.00
2019-05-05T10:32:26.126Z,2924.00
2019-05-05T10:33:26.114Z,2924.00
2019-05-05T10:34:26.106Z,2920.00
2019-05-05T10:35:26.092Z,2916.00
2019-05-05T10:36:26.088Z,2916.00
2019-05-05T10:37:26.471Z,2916.00
2019-05-05T10:38:26.057Z,2912.00
2019-05-05T10:39:26.044Z,2912.00
2019-05-05T10:40:26.034Z,2904.00
2019-05-05T10:41:26.027Z,2904.00
2019-05-05T10:42:26.014Z,2900.00
2019-05-05T10:43:26.057Z,2900.00
2019-05-05T10:44:25.995Z,2900.00
2019-05-05T10:45:25.983Z,2900.00
2019-05-05T10:46:25.976Z,2900.00
2019-05-05T10:47:25.965Z,2896.00
2019-05-05T10:48:25.949Z,2896.00
2019-05-05T10:49:26.046Z,2892.00
2019-05-05T10:50:25.926Z,2892.00
2019-05-05T10:51:25.921Z,2892.00
2019-05-05T10:52:25.906Z,2888.00
2019-05-05T10:53:25.899Z,2888.00
2019-05-05T10:54:40.154Z,2888.00
2019-05-05T10:55:50.838Z,2884.00
2019-05-05T10:56:50.831Z,2880.00
2019-05-05T10:57:50.818Z,2876.00
2019-05-05T10:58:50.808Z,2876.00
2019-05-05T10:59:50.798Z,2868.00
2019-05-05T11:00:50.835Z,2868.00
2019-05-05T11:01:50.774Z,2856.00
2019-05-05T11:02:50.763Z,2852.00
2019-05-05T11:03:50.752Z,2852.00
2019-05-05T11:04:50.744Z,2848.00
2019-05-05T11:05:50.733Z,2844.00
2019-05-05T11:06:50.774Z,2844.00
2019-05-05T11:07:50.712Z,2848.00
2019-05-05T11:08:50.703Z,2844.00
2019-05-05T11:09:50.691Z,2844.00
2019-05-05T11:10:50.679Z,2840.00
2019-05-05T11:11:50.676Z,2844.00
2019-05-05T11:12:50.809Z,2836.00
2019-05-05T11:13:50.648Z,2840.00
2019-05-05T11:14:50.640Z,2836.00
2019-05-05T11:15:50.635Z,2832.00
2019-05-05T11:16:50.621Z,2828.00
2019-05-05T11:17:50.605Z,2828.00
2019-05-05T11:18:50.692Z,2820.00
2019-05-05T11:19:50.583Z,2816.00
2019-05-05T11:20:50.578Z,2816.00
2019-05-05T11:21:50.563Z,2812.00
2019-05-05T11:22:50.551Z,2804.00
2019-05-05T11:23:50.547Z,2804.00
2019-05-05T11:24:58.241Z,2800.00
2019-05-05T11:25:51.622Z,2796.00
2019-05-05T11:26:50.510Z,2788.00
2019-05-05T11:27:50.496Z,2784.00
2019-05-05T11:28:50.487Z,2784.00
2019-05-05T11:29:50.482Z,2776.00
2019-05-05T11:30:50.516Z,2776.00
2019-05-05T11:31:50.457Z,2772.00
2019-05-05T11:32:50.442Z,2768.00
2019-05-05T11:33:50.431Z,2768.00
2019-05-05T11:34:50.423Z,2764.00
2019-05-05T11:35:50.417Z,2756.00
2019-05-05T11:36:50.499Z,2752.00
2019-05-05T11:37:50.388Z,2752.00
2019-05-05T11:38:50.384Z,2748.00
2019-05-05T11:39:50.369Z,2740.00
2019-05-05T11:40:50.363Z,2736.00
2019-05-05T11:41:50.349Z,2736.00
2019-05-05T11:43:50.578Z,2724.00
2019-05-05T11:44:50.317Z,2724.00
2019-05-05T11:45:50.306Z,2716.00
2019-05-05T11:46:50.295Z,2716.00
2019-05-05T11:47:50.286Z,2708.00
2019-05-05T11:48:50.276Z,2700.00
2019-05-05T11:49:50.361Z,2700.00
2019-05-05T11:50:50.260Z,2692.00
2019-05-05T11:51:50.240Z,2688.00
2019-05-05T11:52:50.232Z,2680.00
2019-05-05T11:53:50.220Z,2676.00
2019-05-05T11:54:50.211Z,2672.00
2019-05-05T11:55:50.246Z,2664.00
2019-05-05T11:56:50.189Z,2656.00
2019-05-05T11:57:50.176Z,2656.00
2019-05-05T11:58:50.164Z,2644.00
2019-05-05T11:59:50.156Z,2640.00
2019-05-05T12:00:50.144Z,2636.00
2019-05-05T12:01:50.287Z,2628.00
2019-05-05T12:02:50.124Z,2624.00
2019-05-05T12:03:50.112Z,2620.00
2019-05-05T12:04:50.102Z,2612.00
2019-05-05T12:05:50.090Z,2608.00
2019-05-05T12:06:50.082Z,2600.00
2019-05-05T12:07:50.118Z,2596.00
2019-05-05T12:08:50.059Z,2588.00
2019-05-05T12:09:50.052Z,2580.00